METAR stanice u blizini

 

LYBE - Beograd / Surčin, Srbija
Ažurirano: 20/09/2020 22:00
Vedro
Vedro
 Pravac vetra IJI
Vetar: IJI 13 km/h
Temperatura: 18°C
Tačka rose: 6°C
Vlažnost: 46%
Pritisak: 1018 hPa
Pregled: Vedro
Vidljivost: greater than 10 km
2020/09/20 20:00 LYBE 202000Z 11007KT CAVOK 18/06 Q1018 NOSIG
LYBT - Beograd / Batajnica, Srbija
Ažurirano: 20/09/2020 22:00
Vedro
Vedro
 Pravac vetra ISI
Vetar: ISI 9 km/h
Temperatura: 17°C
Tačka rose: 6°C
Vlažnost: 49%
Pritisak: 1017 hPa
Pregled: Vedro
Vidljivost: greater than 10 km
2020/09/20 20:00 LYBT 202000Z 07005KT 030V100 CAVOK 17/06 Q1017 NOSIG
LYVR - Vršac, Srbija
Ažurirano: 20/09/2020 22:00
Vedro
Vedro
 Pravac vetra JI
Vetar: JI 17 km/h
Temperatura: 21°C
Tačka rose: 4°C
Vlažnost: 33%
Pritisak: 1018 hPa
Pregled: Vedro
Vidljivost: greater than 10 km
2020/09/20 20:00 LYVR 202000Z AUTO 14009KT 100V180 CAVOK 21/04 Q1018
 
LYKV - Lađevci, Srbija
Ažurirano: 20/09/2020 22:00
Vedro
Vedro
 Pravac vetra calm
Vetar: Tišina
Temperatura: 12°C
Tačka rose: 9°C
Vlažnost: 82%
Pritisak: 1018 hPa
Pregled: Vedro
Vidljivost: greater than 10 km
2020/09/20 20:00 LYKV 202000Z 00000KT CAVOK 12/09 Q1018 NOSIG
LYNI - Niš, Srbija
Ažurirano: 20/09/2020 22:00
Vedro
Vedro
 Pravac vetra varies
Vetar: varies 4 km/h
Temperatura: 15°C
Tačka rose: 3°C
Vlažnost: 45%
Pritisak: 1018 hPa
Pregled: Vedro
Vidljivost: greater than 10 km
2020/09/20 20:00 LYNI 202000Z VRB02KT CAVOK 15/03 Q1018 NOSIG
BKPR - Priština, Srbija
Ažurirano: 20/09/2020 22:30
Vedro
Vedro
 Pravac vetra varies
Vetar: varies 4 km/h
Temperatura: 15°C
Tačka rose: 6°C
Vlažnost: 55%
Pritisak: 1019 hPa
Pregled: Vedro
Vidljivost: greater than 10 km
2020/09/20 20:30 BKPR 202030Z VRB02KT CAVOK 15/06 Q1019 NOSIG
 
LHPP - Pecs / Pogany, Hungary
Ažurirano: 20/09/2020 19:45
NOT Current
Vedro
Vedro
 Pravac vetra I
Vetar: I 7 km/h
Temperatura: 20°C
Tačka rose: 10°C
Vlažnost: 53%
Pritisak: 1017 hPa
Pregled: Vedro
Vidljivost: greater than 10 km
2020/09/20 17:45 LHPP 201745Z 09004KT CAVOK 20/10 Q1017
LHUD - Szeged, Hungary
Ažurirano: 04/07/2019 01:45
NOT Current
Vedro
Vedro
 Pravac vetra S
Vetar: S 7 km/h
Temperatura: 18°C
Tačka rose: 13°C
Vlažnost: 73%
Pritisak: 1019 hPa
Pregled: Vedro
Vidljivost: greater than 10 km
2019/07/03 23:45 LHUD 032345Z 35004KT CAVOK 18/13 Q1019
LRTR - Timisoara, Romania
Ažurirano: 20/09/2020 22:00
Vedro
Vedro
 Pravac vetra ISI
Vetar: ISI 9 km/h
Temperatura: 14°C
Tačka rose: 7°C
Vlažnost: 63%
Pritisak: 1018 hPa
Pregled: Vedro
Vidljivost: greater than 10 km
2020/09/20 20:00 LRTR 202000Z 07005KT CAVOK 14/07 Q1018 NOSIG
 
LRCV - Craiova, Romania
Ažurirano: 20/09/2020 22:00
Vedro
Vedro
 Pravac vetra calm
Vetar: Tišina
Temperatura: 15°C
Tačka rose: 2°C
Vlažnost: 42%
Pritisak: 1020 hPa
Pregled: Vedro
Vidljivost: greater than 10 km
2020/09/20 20:00 LRCV 202000Z 00000KT CAVOK 15/02 Q1020
LBSF - Sofia, Bulgaria
Ažurirano: 20/09/2020 22:00
Vedro
Vedro
 Pravac vetra IJI
Vetar: IJI 11 km/h
Temperatura: 11°C
Tačka rose: 3°C
Vlažnost: 58%
Pritisak: 1020 hPa
Pregled: Vedro
Vidljivost: greater than 10 km
2020/09/20 20:00 LBSF 202000Z 12006KT CAVOK 11/03 Q1020 NOSIG
LWSK - Skoplje, Makedonija
Ažurirano: 20/09/2020 22:00
Vedro
Vedro
 Pravac vetra IJI
Vetar: IJI 4 km/h
Temperatura: 17°C
Tačka rose: 9°C
Vlažnost: 59%
Pritisak: 1017 hPa
Pregled: Vedro
Vidljivost: greater than 10 km
2020/09/20 20:00 LWSK 202000Z 12002KT CAVOK 17/09 Q1017 NOSIG
 
LYPG - Podgorica, Crna Gora
Ažurirano: 20/09/2020 22:00
Few Clouds
Few Clouds
 Pravac vetra varies
Vetar: varies 4 km/h
Temperatura: 23°C
Tačka rose: 15°C
Vlažnost: 61%
Pritisak: 1015 hPa
Oblaci: Few Clouds
Vidljivost: 10 km
Cloud details: Few Clouds 2743 m
2020/09/20 20:00 LYPG 202000Z VRB02KT 9999 FEW090 23/15 Q1015 NOSIG
LQSA - Sarajevo, Bosna i Hercegovina
Ažurirano: 20/09/2020 22:00
Vedro
Vedro
 Pravac vetra JI
Vetar: JI 9 km/h
Temperatura: 15°C
Tačka rose: 15°C
Vlažnost: 100%
Pritisak: 1018 hPa
Pregled: Vedro
Vidljivost: greater than 10 km
2020/09/20 20:00 LQSA 202000Z 13005KT CAVOK 15/15 Q1018 NOSIG
LDOS - Osijek, Hrvatksa
Ažurirano: 20/09/2020 22:00
Vedro
Vedro
 Pravac vetra I
Vetar: I 11 km/h
Temperatura: 15°C
Tačka rose: 9°C
Vlažnost: 68%
Pritisak: 1017 hPa
Pregled: Vedro
Vidljivost: greater than 10 km
2020/09/20 20:00 LDOS 202000Z 08006KT CAVOK 15/09 Q1017